sensor_id;sensor_type;location;lat;lon;timestamp;P1;durP1;ratioP1;P2;durP2;ratioP2
51226;SDS011;42714;48.260;10.980;2023-08-31T00:00:40;10.6;;;5.9;;
51226;SDS011;42714;48.260;10.980;2023-08-31T00:05:40;14.3;;;6.5;;
51226;SDS011;42714;48.260;10.980;2023-08-31T00:10:39;9.9;;;5.5;;
51226;SDS011;42714;48.260;10.980;2023-08-31T00:15:39;10.7;;;5.9;;
51226;SDS011;42714;48.260;10.980;2023-08-31T00:25:39;10.2;;;5.8;;
51226;SDS011;42714;48.260;10.980;2023-08-31T00:30:39;7.9;;;4.9;;
51226;SDS011;42714;48.260;10.980;2023-08-31T00:35:39;8.3;;;5.0;;
51226;SDS011;42714;48.260;10.980;2023-08-31T00:40:42;6.8;;;4.6;;
51226;SDS011;42714;48.260;10.980;2023-08-31T00:45:39;6.9;;;4.4;;
51226;SDS011;42714;48.260;10.980;2023-08-31T00:50:39;8.1;;;4.1;;
51226;SDS011;42714;48.260;10.980;2023-08-31T00:55:39;6.4;;;3.7;;
51226;SDS011;42714;48.260;10.980;2023-08-31T01:00:43;6.3;;;4.3;;
51226;SDS011;42714;48.260;10.980;2023-08-31T01:05:54;6.9;;;4.0;;
51226;SDS011;42714;48.260;10.980;2023-08-31T01:10:43;9.4;;;4.9;;
51226;SDS011;42714;48.260;10.980;2023-08-31T01:15:39;7.2;;;4.2;;
51226;SDS011;42714;48.260;10.980;2023-08-31T01:20:45;7.2;;;4.1;;
51226;SDS011;42714;48.260;10.980;2023-08-31T01:25:39;8.6;;;4.4;;
51226;SDS011;42714;48.260;10.980;2023-08-31T01:30:39;8.1;;;4.4;;
51226;SDS011;42714;48.260;10.980;2023-08-31T01:35:43;7.9;;;5.0;;
51226;SDS011;42714;48.260;10.980;2023-08-31T01:40:41;7.9;;;5.5;;
51226;SDS011;42714;48.260;10.980;2023-08-31T01:45:39;8.1;;;5.6;;
51226;SDS011;42714;48.260;10.980;2023-08-31T01:50:39;9.8;;;5.6;;
51226;SDS011;42714;48.260;10.980;2023-08-31T01:55:39;9.5;;;5.6;;
51226;SDS011;42714;48.260;10.980;2023-08-31T02:00:39;9.6;;;5.7;;
51226;SDS011;42714;48.260;10.980;2023-08-31T02:05:39;9.3;;;5.8;;
51226;SDS011;42714;48.260;10.980;2023-08-31T02:10:39;11.8;;;5.8;;
51226;SDS011;42714;48.260;10.980;2023-08-31T02:15:39;9.1;;;5.6;;
51226;SDS011;42714;48.260;10.980;2023-08-31T02:20:39;8.4;;;5.8;;
51226;SDS011;42714;48.260;10.980;2023-08-31T02:25:39;8.1;;;5.9;;
51226;SDS011;42714;48.260;10.980;2023-08-31T02:30:39;12.3;;;5.6;;
51226;SDS011;42714;48.260;10.980;2023-08-31T02:35:39;8.9;;;5.5;;
51226;SDS011;42714;48.260;10.980;2023-08-31T02:40:39;11.2;;;5.5;;
51226;SDS011;42714;48.260;10.980;2023-08-31T02:45:39;14.1;;;5.8;;
51226;SDS011;42714;48.260;10.980;2023-08-31T02:50:39;10.7;;;6.1;;
51226;SDS011;42714;48.260;10.980;2023-08-31T02:55:39;9.8;;;5.8;;
51226;SDS011;42714;48.260;10.980;2023-08-31T03:00:39;14.9;;;6.6;;
51226;SDS011;42714;48.260;10.980;2023-08-31T03:05:39;10.7;;;7.3;;
51226;SDS011;42714;48.260;10.980;2023-08-31T03:10:40;10.5;;;6.9;;
51226;SDS011;42714;48.260;10.980;2023-08-31T03:15:39;11.1;;;7.3;;
51226;SDS011;42714;48.260;10.980;2023-08-31T03:20:39;11.1;;;6.8;;
51226;SDS011;42714;48.260;10.980;2023-08-31T03:25:39;9.3;;;6.3;;
51226;SDS011;42714;48.260;10.980;2023-08-31T03:30:39;11.4;;;6.5;;
51226;SDS011;42714;48.260;10.980;2023-08-31T03:35:39;10.2;;;6.2;;
51226;SDS011;42714;48.260;10.980;2023-08-31T03:40:39;8.4;;;5.0;;
51226;SDS011;42714;48.260;10.980;2023-08-31T03:45:39;10.9;;;4.2;;
51226;SDS011;42714;48.260;10.980;2023-08-31T03:50:39;7.8;;;4.2;;
51226;SDS011;42714;48.260;10.980;2023-08-31T03:55:39;6.4;;;3.6;;
51226;SDS011;42714;48.260;10.980;2023-08-31T04:00:39;6.8;;;4.2;;
51226;SDS011;42714;48.260;10.980;2023-08-31T04:05:39;7.5;;;4.3;;
51226;SDS011;42714;48.260;10.980;2023-08-31T04:10:39;8.6;;;3.8;;
51226;SDS011;42714;48.260;10.980;2023-08-31T04:15:39;6.4;;;3.9;;
51226;SDS011;42714;48.260;10.980;2023-08-31T04:20:45;6.8;;;3.9;;
51226;SDS011;42714;48.260;10.980;2023-08-31T04:25:39;9.7;;;4.2;;
51226;SDS011;42714;48.260;10.980;2023-08-31T04:30:39;9.9;;;4.3;;
51226;SDS011;42714;48.260;10.980;2023-08-31T04:35:39;10.9;;;5.8;;
51226;SDS011;42714;48.260;10.980;2023-08-31T04:40:39;12.5;;;6.7;;
51226;SDS011;42714;48.260;10.980;2023-08-31T04:45:39;12.2;;;7.3;;
51226;SDS011;42714;48.260;10.980;2023-08-31T04:50:39;11.6;;;6.5;;
51226;SDS011;42714;48.260;10.980;2023-08-31T04:55:39;8.8;;;5.0;;
51226;SDS011;42714;48.260;10.980;2023-08-31T05:00:39;9.7;;;5.0;;
51226;SDS011;42714;48.260;10.980;2023-08-31T05:05:39;9.9;;;4.7;;
51226;SDS011;42714;48.260;10.980;2023-08-31T05:10:39;8.3;;;4.7;;
51226;SDS011;42714;48.260;10.980;2023-08-31T05:15:39;8.7;;;4.8;;
51226;SDS011;42714;48.260;10.980;2023-08-31T05:20:39;8.1;;;4.6;;
51226;SDS011;42714;48.260;10.980;2023-08-31T05:31:01;6.7;;;4.6;;
51226;SDS011;42714;48.260;10.980;2023-08-31T05:35:39;7.9;;;3.9;;
51226;SDS011;42714;48.260;10.980;2023-08-31T05:40:39;10.2;;;4.3;;
51226;SDS011;42714;48.260;10.980;2023-08-31T05:45:39;7.5;;;3.6;;
51226;SDS011;42714;48.260;10.980;2023-08-31T05:50:39;8.0;;;2.9;;
51226;SDS011;42714;48.260;10.980;2023-08-31T05:55:39;7.1;;;2.9;;
51226;SDS011;42714;48.260;10.980;2023-08-31T06:00:39;4.7;;;2.7;;
51226;SDS011;42714;48.260;10.980;2023-08-31T06:05:39;5.7;;;2.5;;
51226;SDS011;42714;48.260;10.980;2023-08-31T06:10:39;3.9;;;2.1;;
51226;SDS011;42714;48.260;10.980;2023-08-31T06:15:39;5.6;;;2.3;;
51226;SDS011;42714;48.260;10.980;2023-08-31T06:20:39;6.9;;;2.9;;
51226;SDS011;42714;48.260;10.980;2023-08-31T06:25:39;8.4;;;2.7;;
51226;SDS011;42714;48.260;10.980;2023-08-31T06:30:40;4.7;;;1.7;;
51226;SDS011;42714;48.260;10.980;2023-08-31T06:35:39;6.3;;;1.3;;
51226;SDS011;42714;48.260;10.980;2023-08-31T06:40:41;3.4;;;1.3;;
51226;SDS011;42714;48.260;10.980;2023-08-31T06:45:39;3.6;;;1.0;;
51226;SDS011;42714;48.260;10.980;2023-08-31T06:50:39;3.5;;;1.1;;
51226;SDS011;42714;48.260;10.980;2023-08-31T06:55:39;6.0;;;1.2;;
51226;SDS011;42714;48.260;10.980;2023-08-31T07:00:39;4.2;;;1.3;;
51226;SDS011;42714;48.260;10.980;2023-08-31T07:05:41;5.7;;;1.1;;
51226;SDS011;42714;48.260;10.980;2023-08-31T07:10:39;10.7;;;1.4;;
51226;SDS011;42714;48.260;10.980;2023-08-31T07:15:39;5.2;;;1.3;;
51226;SDS011;42714;48.260;10.980;2023-08-31T07:20:39;4.3;;;1.1;;
51226;SDS011;42714;48.260;10.980;2023-08-31T07:25:39;4.0;;;1.2;;
51226;SDS011;42714;48.260;10.980;2023-08-31T07:30:39;3.7;;;0.9;;
51226;SDS011;42714;48.260;10.980;2023-08-31T07:35:39;7.4;;;1.1;;
51226;SDS011;42714;48.260;10.980;2023-08-31T07:40:39;4.9;;;1.2;;
51226;SDS011;42714;48.260;10.980;2023-08-31T07:45:39;4.9;;;1.2;;
51226;SDS011;42714;48.260;10.980;2023-08-31T07:50:40;9.5;;;1.6;;
51226;SDS011;42714;48.260;10.980;2023-08-31T07:55:39;9.6;;;1.4;;
51226;SDS011;42714;48.260;10.980;2023-08-31T08:00:39;6.8;;;1.1;;
51226;SDS011;42714;48.260;10.980;2023-08-31T08:05:39;5.5;;;1.6;;
51226;SDS011;42714;48.260;10.980;2023-08-31T08:10:39;9.5;;;1.4;;
51226;SDS011;42714;48.260;10.980;2023-08-31T08:15:39;5.6;;;1.7;;
51226;SDS011;42714;48.260;10.980;2023-08-31T08:20:39;5.0;;;1.4;;
51226;SDS011;42714;48.260;10.980;2023-08-31T08:25:39;9.4;;;1.4;;
51226;SDS011;42714;48.260;10.980;2023-08-31T08:30:39;6.0;;;1.9;;
51226;SDS011;42714;48.260;10.980;2023-08-31T08:35:39;6.7;;;1.6;;
51226;SDS011;42714;48.260;10.980;2023-08-31T08:40:39;7.5;;;1.8;;
51226;SDS011;42714;48.260;10.980;2023-08-31T08:45:39;4.9;;;1.6;;
51226;SDS011;42714;48.260;10.980;2023-08-31T08:50:39;8.6;;;1.6;;
51226;SDS011;42714;48.260;10.980;2023-08-31T08:55:40;6.1;;;1.6;;
51226;SDS011;42714;48.260;10.980;2023-08-31T09:00:39;6.3;;;1.2;;
51226;SDS011;42714;48.260;10.980;2023-08-31T09:05:39;6.6;;;1.2;;
51226;SDS011;42714;48.260;10.980;2023-08-31T09:10:40;9.2;;;1.6;;
51226;SDS011;42714;48.260;10.980;2023-08-31T09:15:40;7.5;;;2.0;;
51226;SDS011;42714;48.260;10.980;2023-08-31T09:20:43;8.0;;;1.7;;
51226;SDS011;42714;48.260;10.980;2023-08-31T09:25:43;6.0;;;1.7;;
51226;SDS011;42714;48.260;10.980;2023-08-31T09:30:39;7.8;;;1.6;;
51226;SDS011;42714;48.260;10.980;2023-08-31T09:35:40;6.8;;;1.6;;
51226;SDS011;42714;48.260;10.980;2023-08-31T09:40:39;6.3;;;1.2;;
51226;SDS011;42714;48.260;10.980;2023-08-31T09:45:39;8.7;;;1.8;;
51226;SDS011;42714;48.260;10.980;2023-08-31T09:55:40;7.6;;;1.5;;
51226;SDS011;42714;48.260;10.980;2023-08-31T10:00:39;5.8;;;1.4;;
51226;SDS011;42714;48.260;10.980;2023-08-31T10:05:39;10.1;;;1.8;;
51226;SDS011;42714;48.260;10.980;2023-08-31T10:10:40;7.2;;;1.5;;
51226;SDS011;42714;48.260;10.980;2023-08-31T10:15:39;8.1;;;1.5;;
51226;SDS011;42714;48.260;10.980;2023-08-31T10:20:41;8.5;;;1.7;;
51226;SDS011;42714;48.260;10.980;2023-08-31T10:30:39;8.2;;;1.3;;
51226;SDS011;42714;48.260;10.980;2023-08-31T10:35:40;7.1;;;1.3;;
51226;SDS011;42714;48.260;10.980;2023-08-31T10:40:39;5.4;;;1.0;;
51226;SDS011;42714;48.260;10.980;2023-08-31T10:50:43;4.4;;;1.1;;
51226;SDS011;42714;48.260;10.980;2023-08-31T10:56:01;4.3;;;1.1;;
51226;SDS011;42714;48.260;10.980;2023-08-31T11:05:50;7.5;;;1.4;;
51226;SDS011;42714;48.260;10.980;2023-08-31T11:10:39;5.3;;;1.5;;
51226;SDS011;42714;48.260;10.980;2023-08-31T11:15:39;5.7;;;1.2;;
51226;SDS011;42714;48.260;10.980;2023-08-31T11:20:39;7.4;;;1.6;;
51226;SDS011;42714;48.260;10.980;2023-08-31T11:25:39;6.2;;;1.3;;
51226;SDS011;42714;48.260;10.980;2023-08-31T11:30:39;6.1;;;1.1;;
51226;SDS011;42714;48.260;10.980;2023-08-31T11:35:40;5.9;;;1.1;;
51226;SDS011;42714;48.260;10.980;2023-08-31T11:40:39;5.0;;;1.1;;
51226;SDS011;42714;48.260;10.980;2023-08-31T11:45:39;4.7;;;1.1;;
51226;SDS011;42714;48.260;10.980;2023-08-31T11:50:39;6.1;;;1.2;;
51226;SDS011;42714;48.260;10.980;2023-08-31T11:55:48;5.1;;;1.1;;
51226;SDS011;42714;48.260;10.980;2023-08-31T12:00:39;7.6;;;1.4;;
51226;SDS011;42714;48.260;10.980;2023-08-31T12:10:40;9.3;;;1.5;;
51226;SDS011;42714;48.260;10.980;2023-08-31T12:15:40;7.7;;;1.3;;
51226;SDS011;42714;48.260;10.980;2023-08-31T12:25:44;7.7;;;1.2;;
51226;SDS011;42714;48.260;10.980;2023-08-31T12:30:41;6.4;;;1.2;;
51226;SDS011;42714;48.260;10.980;2023-08-31T12:35:40;3.6;;;1.0;;
51226;SDS011;42714;48.260;10.980;2023-08-31T12:40:40;7.9;;;1.4;;
51226;SDS011;42714;48.260;10.980;2023-08-31T12:45:40;6.0;;;1.2;;
51226;SDS011;42714;48.260;10.980;2023-08-31T12:50:40;10.9;;;1.8;;
51226;SDS011;42714;48.260;10.980;2023-08-31T12:55:40;6.0;;;1.1;;
51226;SDS011;42714;48.260;10.980;2023-08-31T13:00:40;5.6;;;1.4;;
51226;SDS011;42714;48.260;10.980;2023-08-31T13:05:40;3.7;;;0.9;;
51226;SDS011;42714;48.260;10.980;2023-08-31T13:10:40;7.5;;;1.4;;
51226;SDS011;42714;48.260;10.980;2023-08-31T13:15:40;4.7;;;1.2;;
51226;SDS011;42714;48.260;10.980;2023-08-31T13:20:40;9.9;;;1.5;;
51226;SDS011;42714;48.260;10.980;2023-08-31T13:25:40;6.1;;;1.0;;
51226;SDS011;42714;48.260;10.980;2023-08-31T13:30:40;3.5;;;0.9;;
51226;SDS011;42714;48.260;10.980;2023-08-31T13:35:40;4.4;;;1.1;;
51226;SDS011;42714;48.260;10.980;2023-08-31T13:40:40;5.0;;;1.0;;
51226;SDS011;42714;48.260;10.980;2023-08-31T13:45:40;5.7;;;1.0;;
51226;SDS011;42714;48.260;10.980;2023-08-31T13:50:40;7.4;;;1.0;;
51226;SDS011;42714;48.260;10.980;2023-08-31T13:55:40;4.6;;;1.2;;
51226;SDS011;42714;48.260;10.980;2023-08-31T14:00:40;4.7;;;1.0;;
51226;SDS011;42714;48.260;10.980;2023-08-31T14:05:40;4.2;;;0.9;;
51226;SDS011;42714;48.260;10.980;2023-08-31T14:10:40;5.1;;;1.2;;
51226;SDS011;42714;48.260;10.980;2023-08-31T14:15:44;6.4;;;1.1;;
51226;SDS011;42714;48.260;10.980;2023-08-31T14:20:40;6.5;;;1.1;;
51226;SDS011;42714;48.260;10.980;2023-08-31T14:25:40;5.3;;;1.1;;
51226;SDS011;42714;48.260;10.980;2023-08-31T14:30:40;6.7;;;1.3;;
51226;SDS011;42714;48.260;10.980;2023-08-31T14:35:40;7.1;;;1.2;;
51226;SDS011;42714;48.260;10.980;2023-08-31T14:40:40;8.8;;;1.2;;
51226;SDS011;42714;48.260;10.980;2023-08-31T14:45:40;4.5;;;1.2;;
51226;SDS011;42714;48.260;10.980;2023-08-31T14:50:42;7.2;;;1.3;;
51226;SDS011;42714;48.260;10.980;2023-08-31T14:55:40;4.6;;;1.1;;
51226;SDS011;42714;48.260;10.980;2023-08-31T15:00:40;5.4;;;1.1;;
51226;SDS011;42714;48.260;10.980;2023-08-31T15:05:40;6.7;;;1.3;;
51226;SDS011;42714;48.260;10.980;2023-08-31T15:10:40;5.8;;;1.3;;
51226;SDS011;42714;48.260;10.980;2023-08-31T15:15:43;7.6;;;1.3;;
51226;SDS011;42714;48.260;10.980;2023-08-31T15:20:40;8.1;;;1.3;;
51226;SDS011;42714;48.260;10.980;2023-08-31T15:25:40;8.9;;;1.9;;
51226;SDS011;42714;48.260;10.980;2023-08-31T15:30:40;5.8;;;1.3;;
51226;SDS011;42714;48.260;10.980;2023-08-31T15:35:40;6.5;;;1.3;;
51226;SDS011;42714;48.260;10.980;2023-08-31T15:40:45;6.2;;;1.4;;
51226;SDS011;42714;48.260;10.980;2023-08-31T15:45:41;12.1;;;1.6;;
51226;SDS011;42714;48.260;10.980;2023-08-31T15:50:40;7.7;;;1.4;;
51226;SDS011;42714;48.260;10.980;2023-08-31T15:55:40;4.9;;;1.3;;
51226;SDS011;42714;48.260;10.980;2023-08-31T16:00:40;8.1;;;1.4;;
51226;SDS011;42714;48.260;10.980;2023-08-31T16:05:40;6.5;;;1.7;;
51226;SDS011;42714;48.260;10.980;2023-08-31T16:10:40;6.0;;;1.4;;
51226;SDS011;42714;48.260;10.980;2023-08-31T16:15:44;9.8;;;1.6;;
51226;SDS011;42714;48.260;10.980;2023-08-31T16:20:40;7.0;;;1.8;;
51226;SDS011;42714;48.260;10.980;2023-08-31T16:25:40;10.5;;;2.0;;
51226;SDS011;42714;48.260;10.980;2023-08-31T16:30:40;8.9;;;3.0;;
51226;SDS011;42714;48.260;10.980;2023-08-31T16:35:40;13.6;;;2.0;;
51226;SDS011;42714;48.260;10.980;2023-08-31T16:40:40;9.1;;;2.6;;
51226;SDS011;42714;48.260;10.980;2023-08-31T16:45:40;9.3;;;1.8;;
51226;SDS011;42714;48.260;10.980;2023-08-31T16:50:40;14.0;;;2.0;;
51226;SDS011;42714;48.260;10.980;2023-08-31T16:55:40;6.0;;;1.5;;
51226;SDS011;42714;48.260;10.980;2023-08-31T17:00:40;8.6;;;1.7;;
51226;SDS011;42714;48.260;10.980;2023-08-31T17:05:40;5.0;;;1.3;;
51226;SDS011;42714;48.260;10.980;2023-08-31T17:10:40;6.3;;;1.3;;
51226;SDS011;42714;48.260;10.980;2023-08-31T17:15:40;10.3;;;1.7;;
51226;SDS011;42714;48.260;10.980;2023-08-31T17:20:40;8.0;;;1.5;;
51226;SDS011;42714;48.260;10.980;2023-08-31T17:25:40;7.7;;;1.8;;
51226;SDS011;42714;48.260;10.980;2023-08-31T17:30:40;7.8;;;1.5;;
51226;SDS011;42714;48.260;10.980;2023-08-31T17:35:40;5.0;;;1.2;;
51226;SDS011;42714;48.260;10.980;2023-08-31T17:40:40;8.7;;;1.3;;
51226;SDS011;42714;48.260;10.980;2023-08-31T17:45:40;9.0;;;1.5;;
51226;SDS011;42714;48.260;10.980;2023-08-31T17:50:40;6.0;;;1.5;;
51226;SDS011;42714;48.260;10.980;2023-08-31T17:55:40;12.6;;;4.4;;
51226;SDS011;42714;48.260;10.980;2023-08-31T18:00:40;11.6;;;1.5;;
51226;SDS011;42714;48.260;10.980;2023-08-31T18:10:40;9.3;;;1.8;;
51226;SDS011;42714;48.260;10.980;2023-08-31T18:15:49;9.2;;;1.9;;
51226;SDS011;42714;48.260;10.980;2023-08-31T18:20:40;8.5;;;1.6;;
51226;SDS011;42714;48.260;10.980;2023-08-31T18:25:44;6.7;;;2.2;;
51226;SDS011;42714;48.260;10.980;2023-08-31T18:30:40;6.4;;;1.5;;
51226;SDS011;42714;48.260;10.980;2023-08-31T18:35:43;7.9;;;1.9;;
51226;SDS011;42714;48.260;10.980;2023-08-31T18:40:40;6.2;;;1.9;;
51226;SDS011;42714;48.260;10.980;2023-08-31T18:45:41;6.7;;;1.7;;
51226;SDS011;42714;48.260;10.980;2023-08-31T18:50:40;5.0;;;1.6;;
51226;SDS011;42714;48.260;10.980;2023-08-31T18:55:40;10.2;;;2.0;;
51226;SDS011;42714;48.260;10.980;2023-08-31T19:00:40;6.7;;;1.9;;
51226;SDS011;42714;48.260;10.980;2023-08-31T19:05:40;7.9;;;1.9;;
51226;SDS011;42714;48.260;10.980;2023-08-31T19:10:40;9.2;;;2.1;;
51226;SDS011;42714;48.260;10.980;2023-08-31T19:15:40;9.1;;;1.9;;
51226;SDS011;42714;48.260;10.980;2023-08-31T19:20:40;7.9;;;2.1;;
51226;SDS011;42714;48.260;10.980;2023-08-31T19:25:40;7.3;;;1.9;;
51226;SDS011;42714;48.260;10.980;2023-08-31T19:30:40;8.8;;;2.4;;
51226;SDS011;42714;48.260;10.980;2023-08-31T19:35:40;8.4;;;1.8;;
51226;SDS011;42714;48.260;10.980;2023-08-31T19:40:40;7.2;;;2.1;;
51226;SDS011;42714;48.260;10.980;2023-08-31T19:45:40;7.5;;;2.1;;
51226;SDS011;42714;48.260;10.980;2023-08-31T19:50:40;8.8;;;2.2;;
51226;SDS011;42714;48.260;10.980;2023-08-31T19:55:40;9.2;;;2.5;;
51226;SDS011;42714;48.260;10.980;2023-08-31T20:00:40;7.9;;;2.5;;
51226;SDS011;42714;48.260;10.980;2023-08-31T20:05:40;7.5;;;1.9;;
51226;SDS011;42714;48.260;10.980;2023-08-31T20:10:41;6.9;;;2.2;;
51226;SDS011;42714;48.260;10.980;2023-08-31T20:15:40;11.0;;;2.2;;
51226;SDS011;42714;48.260;10.980;2023-08-31T20:20:40;5.8;;;1.9;;
51226;SDS011;42714;48.260;10.980;2023-08-31T20:25:40;9.3;;;2.3;;
51226;SDS011;42714;48.260;10.980;2023-08-31T20:30:40;7.0;;;2.0;;
51226;SDS011;42714;48.260;10.980;2023-08-31T20:35:40;8.9;;;2.1;;
51226;SDS011;42714;48.260;10.980;2023-08-31T20:40:40;8.9;;;2.3;;
51226;SDS011;42714;48.260;10.980;2023-08-31T20:45:40;7.6;;;2.1;;
51226;SDS011;42714;48.260;10.980;2023-08-31T20:50:40;6.3;;;1.9;;
51226;SDS011;42714;48.260;10.980;2023-08-31T20:55:40;8.1;;;2.0;;
51226;SDS011;42714;48.260;10.980;2023-08-31T21:00:40;8.6;;;2.0;;
51226;SDS011;42714;48.260;10.980;2023-08-31T21:05:40;6.4;;;2.1;;
51226;SDS011;42714;48.260;10.980;2023-08-31T21:10:40;6.2;;;1.8;;
51226;SDS011;42714;48.260;10.980;2023-08-31T21:15:40;5.9;;;1.9;;
51226;SDS011;42714;48.260;10.980;2023-08-31T21:20:41;11.2;;;2.3;;
51226;SDS011;42714;48.260;10.980;2023-08-31T21:25:40;8.7;;;2.3;;
51226;SDS011;42714;48.260;10.980;2023-08-31T21:30:40;6.7;;;2.1;;
51226;SDS011;42714;48.260;10.980;2023-08-31T21:35:40;8.2;;;2.1;;
51226;SDS011;42714;48.260;10.980;2023-08-31T21:40:40;8.3;;;2.5;;
51226;SDS011;42714;48.260;10.980;2023-08-31T21:45:40;6.5;;;2.2;;
51226;SDS011;42714;48.260;10.980;2023-08-31T21:50:40;10.5;;;2.7;;
51226;SDS011;42714;48.260;10.980;2023-08-31T21:55:40;6.0;;;2.2;;
51226;SDS011;42714;48.260;10.980;2023-08-31T22:00:40;8.3;;;2.6;;
51226;SDS011;42714;48.260;10.980;2023-08-31T22:05:40;8.8;;;2.4;;
51226;SDS011;42714;48.260;10.980;2023-08-31T22:10:40;7.3;;;2.5;;
51226;SDS011;42714;48.260;10.980;2023-08-31T22:15:40;9.4;;;2.6;;
51226;SDS011;42714;48.260;10.980;2023-08-31T22:20:40;8.2;;;2.6;;
51226;SDS011;42714;48.260;10.980;2023-08-31T22:25:40;9.0;;;2.7;;
51226;SDS011;42714;48.260;10.980;2023-08-31T22:30:40;6.7;;;2.8;;
51226;SDS011;42714;48.260;10.980;2023-08-31T22:35:40;8.1;;;3.0;;
51226;SDS011;42714;48.260;10.980;2023-08-31T22:40:40;6.6;;;3.2;;
51226;SDS011;42714;48.260;10.980;2023-08-31T22:45:40;8.4;;;2.9;;
51226;SDS011;42714;48.260;10.980;2023-08-31T22:50:40;8.2;;;3.1;;
51226;SDS011;42714;48.260;10.980;2023-08-31T22:55:40;18.4;;;3.9;;
51226;SDS011;42714;48.260;10.980;2023-08-31T23:00:40;8.1;;;3.2;;
51226;SDS011;42714;48.260;10.980;2023-08-31T23:05:44;6.8;;;2.9;;
51226;SDS011;42714;48.260;10.980;2023-08-31T23:10:40;10.5;;;3.2;;
51226;SDS011;42714;48.260;10.980;2023-08-31T23:15:40;8.4;;;3.2;;
51226;SDS011;42714;48.260;10.980;2023-08-31T23:20:40;8.2;;;3.7;;
51226;SDS011;42714;48.260;10.980;2023-08-31T23:25:40;8.2;;;3.3;;
51226;SDS011;42714;48.260;10.980;2023-08-31T23:30:40;6.5;;;3.6;;
51226;SDS011;42714;48.260;10.980;2023-08-31T23:35:40;8.0;;;4.0;;
51226;SDS011;42714;48.260;10.980;2023-08-31T23:40:41;10.1;;;3.3;;
51226;SDS011;42714;48.260;10.980;2023-08-31T23:45:40;6.0;;;3.1;;
51226;SDS011;42714;48.260;10.980;2023-08-31T23:50:40;9.0;;;3.2;;
51226;SDS011;42714;48.260;10.980;2023-08-31T23:55:40;8.6;;;3.3;;
